sensor_id;sensor_type;location;lat;lon;timestamp;pressure;altitude;pressure_sealevel;temperature;humidity
27958;BME280;15295;42.658;23.374;2023-04-04T00:05:00;93169.03;;;13.69;59.35
27958;BME280;15295;42.658;23.374;2023-04-04T00:07:25;93165.53;;;13.68;59.30
27958;BME280;15295;42.658;23.374;2023-04-04T00:09:51;93174.41;;;13.72;59.44
27958;BME280;15295;42.658;23.374;2023-04-04T00:12:17;93176.94;;;13.67;59.59
27958;BME280;15295;42.658;23.374;2023-04-04T00:14:42;93173.56;;;13.63;59.49
27958;BME280;15295;42.658;23.374;2023-04-04T00:17:08;93181.81;;;13.63;59.47
27958;BME280;15295;42.658;23.374;2023-04-04T00:19:33;93187.63;;;13.65;59.50
27958;BME280;15295;42.658;23.374;2023-04-04T00:21:58;93184.09;;;13.64;59.44
27958;BME280;15295;42.658;23.374;2023-04-04T00:24:24;93177.72;;;13.67;59.27
27958;BME280;15295;42.658;23.374;2023-04-04T00:26:49;93181.22;;;13.68;59.49
27958;BME280;15295;42.658;23.374;2023-04-04T00:29:15;93189.84;;;13.79;59.63
27958;BME280;15295;42.658;23.374;2023-04-04T00:31:42;93158.97;;;13.66;59.37
27958;BME280;15295;42.658;23.374;2023-04-04T00:34:08;93167.81;;;13.70;59.36
27958;BME280;15295;42.658;23.374;2023-04-04T00:36:33;93172.94;;;13.89;59.24
27958;BME280;15295;42.658;23.374;2023-04-04T00:38:59;93173.53;;;13.84;59.45
27958;BME280;15295;42.658;23.374;2023-04-04T00:41:24;93167.16;;;13.87;59.17
27958;BME280;15295;42.658;23.374;2023-04-04T00:43:49;93166.69;;;13.89;58.69
27958;BME280;15295;42.658;23.374;2023-04-04T00:46:17;93165.03;;;13.91;58.79
27958;BME280;15295;42.658;23.374;2023-04-04T00:48:43;93158.53;;;13.76;58.26
27958;BME280;15295;42.658;23.374;2023-04-04T00:51:09;93145.41;;;13.71;58.60
27958;BME280;15295;42.658;23.374;2023-04-04T00:53:35;93147.38;;;13.71;58.60
27958;BME280;15295;42.658;23.374;2023-04-04T00:56:02;93150.78;;;13.75;58.25
27958;BME280;15295;42.658;23.374;2023-04-04T00:58:28;93137.44;;;13.64;58.07
27958;BME280;15295;42.658;23.374;2023-04-04T01:00:54;93139.56;;;13.60;58.38
27958;BME280;15295;42.658;23.374;2023-04-04T01:03:20;93145.56;;;13.68;58.22
27958;BME280;15295;42.658;23.374;2023-04-04T01:05:46;93142.41;;;13.48;58.65
27958;BME280;15295;42.658;23.374;2023-04-04T01:08:11;93160.94;;;13.65;58.32
27958;BME280;15295;42.658;23.374;2023-04-04T01:10:38;93163.09;;;13.70;58.29
27958;BME280;15295;42.658;23.374;2023-04-04T01:13:17;93155.41;;;13.56;59.01
27958;BME280;15295;42.658;23.374;2023-04-04T01:15:42;93147.09;;;13.47;59.19
27958;BME280;15295;42.658;23.374;2023-04-04T01:18:10;93160.78;;;13.60;59.09
27958;BME280;15295;42.658;23.374;2023-04-04T01:20:56;93166.25;;;13.60;59.19
27958;BME280;15295;42.658;23.374;2023-04-04T01:23:31;93166.66;;;13.49;59.36
27958;BME280;15295;42.658;23.374;2023-04-04T01:26:03;93162.53;;;13.54;59.15
27958;BME280;15295;42.658;23.374;2023-04-04T01:28:46;93171.56;;;13.54;59.36
27958;BME280;15295;42.658;23.374;2023-04-04T01:31:13;93171.88;;;13.35;59.65
27958;BME280;15295;42.658;23.374;2023-04-04T01:33:45;93174.22;;;13.36;59.56
27958;BME280;15295;42.658;23.374;2023-04-04T01:36:22;93153.13;;;13.33;59.82
27958;BME280;15295;42.658;23.374;2023-04-04T01:41:22;93166.91;;;13.42;60.01
27958;BME280;15295;42.658;23.374;2023-04-04T01:43:55;93160.75;;;13.29;60.13
27958;BME280;15295;42.658;23.374;2023-04-04T01:46:21;93158.22;;;13.44;59.54
27958;BME280;15295;42.658;23.374;2023-04-04T01:48:47;93159.63;;;13.48;59.74
27958;BME280;15295;42.658;23.374;2023-04-04T01:51:12;93148.03;;;13.44;59.40
27958;BME280;15295;42.658;23.374;2023-04-04T01:53:47;93141.50;;;13.51;59.08
27958;BME280;15295;42.658;23.374;2023-04-04T01:56:12;93137.53;;;13.52;59.00
27958;BME280;15295;42.658;23.374;2023-04-04T01:58:37;93128.25;;;13.49;59.38
27958;BME280;15295;42.658;23.374;2023-04-04T02:01:03;93125.44;;;13.40;59.12
27958;BME280;15295;42.658;23.374;2023-04-04T02:03:39;93122.91;;;13.24;59.31
27958;BME280;15295;42.658;23.374;2023-04-04T02:06:05;93131.19;;;13.33;59.21
27958;BME280;15295;42.658;23.374;2023-04-04T02:08:32;93134.00;;;13.42;58.60
27958;BME280;15295;42.658;23.374;2023-04-04T02:10:57;93135.03;;;13.36;58.38
27958;BME280;15295;42.658;23.374;2023-04-04T02:13:28;93138.09;;;13.38;58.04
27958;BME280;15295;42.658;23.374;2023-04-04T02:15:54;93121.81;;;13.22;58.46
27958;BME280;15295;42.658;23.374;2023-04-04T02:18:19;93113.34;;;13.07;58.57
27958;BME280;15295;42.658;23.374;2023-04-04T02:20:45;93124.38;;;13.16;58.40
27958;BME280;15295;42.658;23.374;2023-04-04T02:23:10;93107.44;;;13.08;57.88
27958;BME280;15295;42.658;23.374;2023-04-04T02:25:35;93106.78;;;13.04;57.72
27958;BME280;15295;42.658;23.374;2023-04-04T02:28:01;93100.88;;;13.06;57.36
27958;BME280;15295;42.658;23.374;2023-04-04T02:30:26;93118.41;;;13.08;56.94
27958;BME280;15295;42.658;23.374;2023-04-04T02:32:52;93117.97;;;13.10;56.97
27958;BME280;15295;42.658;23.374;2023-04-04T02:35:18;93127.63;;;13.02;56.90
27958;BME280;15295;42.658;23.374;2023-04-04T02:37:44;93122.25;;;12.98;56.50
27958;BME280;15295;42.658;23.374;2023-04-04T02:40:11;93127.13;;;12.94;56.88
27958;BME280;15295;42.658;23.374;2023-04-04T02:42:41;93130.16;;;12.96;57.11
27958;BME280;15295;42.658;23.374;2023-04-04T02:45:07;93123.66;;;13.03;57.02
27958;BME280;15295;42.658;23.374;2023-04-04T02:47:33;93118.72;;;13.10;57.63
27958;BME280;15295;42.658;23.374;2023-04-04T02:49:58;93127.44;;;13.18;57.96
27958;BME280;15295;42.658;23.374;2023-04-04T02:52:23;93130.06;;;13.22;57.78
27958;BME280;15295;42.658;23.374;2023-04-04T02:55:08;93124.72;;;13.18;57.97
27958;BME280;15295;42.658;23.374;2023-04-04T02:57:34;93124.44;;;13.25;58.14
27958;BME280;15295;42.658;23.374;2023-04-04T03:00:01;93128.59;;;13.30;57.84
27958;BME280;15295;42.658;23.374;2023-04-04T03:02:28;93124.00;;;13.27;57.44
27958;BME280;15295;42.658;23.374;2023-04-04T03:04:54;93109.41;;;13.30;56.59
27958;BME280;15295;42.658;23.374;2023-04-04T03:07:20;93118.38;;;13.30;56.70
27958;BME280;15295;42.658;23.374;2023-04-04T03:09:47;93107.84;;;13.29;56.64
27958;BME280;15295;42.658;23.374;2023-04-04T03:12:12;93123.53;;;13.28;57.16
27958;BME280;15295;42.658;23.374;2023-04-04T03:14:38;93124.81;;;13.36;57.09
27958;BME280;15295;42.658;23.374;2023-04-04T03:17:03;93131.81;;;13.37;56.56
27958;BME280;15295;42.658;23.374;2023-04-04T03:19:29;93117.78;;;13.35;56.35
27958;BME280;15295;42.658;23.374;2023-04-04T03:21:54;93117.84;;;13.44;56.46
27958;BME280;15295;42.658;23.374;2023-04-04T03:24:22;93129.50;;;13.57;56.22
27958;BME280;15295;42.658;23.374;2023-04-04T03:26:48;93122.47;;;13.56;56.47
27958;BME280;15295;42.658;23.374;2023-04-04T03:29:13;93122.97;;;13.64;56.23
27958;BME280;15295;42.658;23.374;2023-04-04T03:31:38;93130.25;;;13.58;56.31
27958;BME280;15295;42.658;23.374;2023-04-04T03:34:04;93130.13;;;13.61;56.27
27958;BME280;15295;42.658;23.374;2023-04-04T03:36:30;93120.66;;;13.62;55.83
27958;BME280;15295;42.658;23.374;2023-04-04T03:38:56;93136.53;;;13.67;55.78
27958;BME280;15295;42.658;23.374;2023-04-04T03:41:21;93134.53;;;13.59;55.84
27958;BME280;15295;42.658;23.374;2023-04-04T03:43:47;93136.22;;;13.65;56.04
27958;BME280;15295;42.658;23.374;2023-04-04T03:46:13;93132.28;;;13.66;56.39
27958;BME280;15295;42.658;23.374;2023-04-04T03:48:38;93129.84;;;13.68;56.76
27958;BME280;15295;42.658;23.374;2023-04-04T03:51:04;93135.50;;;13.74;56.75
27958;BME280;15295;42.658;23.374;2023-04-04T03:53:30;93137.81;;;13.84;56.63
27958;BME280;15295;42.658;23.374;2023-04-04T03:55:56;93134.09;;;13.69;57.28
27958;BME280;15295;42.658;23.374;2023-04-04T03:58:22;93134.63;;;13.77;57.18
27958;BME280;15295;42.658;23.374;2023-04-04T04:00:48;93133.38;;;13.78;57.31
27958;BME280;15295;42.658;23.374;2023-04-04T04:03:13;93127.28;;;13.74;57.63
27958;BME280;15295;42.658;23.374;2023-04-04T04:05:39;93126.06;;;13.84;57.67
27958;BME280;15295;42.658;23.374;2023-04-04T04:08:05;93130.97;;;13.89;57.78
27958;BME280;15295;42.658;23.374;2023-04-04T04:10:33;93131.28;;;13.91;57.87
27958;BME280;15295;42.658;23.374;2023-04-04T04:12:58;93129.00;;;13.89;57.78
27958;BME280;15295;42.658;23.374;2023-04-04T04:15:36;93121.84;;;13.92;57.49
27958;BME280;15295;42.658;23.374;2023-04-04T04:18:01;93123.22;;;13.87;57.51
27958;BME280;15295;42.658;23.374;2023-04-04T04:20:27;93127.78;;;13.90;57.76
27958;BME280;15295;42.658;23.374;2023-04-04T04:22:52;93127.47;;;13.88;57.58
27958;BME280;15295;42.658;23.374;2023-04-04T04:25:24;93148.84;;;13.93;57.78
27958;BME280;15295;42.658;23.374;2023-04-04T04:27:49;93147.31;;;13.92;57.87
27958;BME280;15295;42.658;23.374;2023-04-04T04:30:15;93148.84;;;13.93;57.84
27958;BME280;15295;42.658;23.374;2023-04-04T04:32:40;93155.44;;;13.96;57.90
27958;BME280;15295;42.658;23.374;2023-04-04T04:35:07;93140.63;;;13.93;57.70
27958;BME280;15295;42.658;23.374;2023-04-04T04:37:33;93148.13;;;14.02;57.45
27958;BME280;15295;42.658;23.374;2023-04-04T04:39:58;93113.69;;;13.79;57.43
27958;BME280;15295;42.658;23.374;2023-04-04T04:42:26;93163.09;;;14.10;57.47
27958;BME280;15295;42.658;23.374;2023-04-04T04:45:07;93170.13;;;14.11;57.53
27958;BME280;15295;42.658;23.374;2023-04-04T04:47:35;93160.66;;;14.12;57.56
27958;BME280;15295;42.658;23.374;2023-04-04T04:50:02;93169.50;;;14.16;57.42
27958;BME280;15295;42.658;23.374;2023-04-04T04:52:28;93166.34;;;14.18;57.42
27958;BME280;15295;42.658;23.374;2023-04-04T04:54:56;93169.69;;;14.22;57.53
27958;BME280;15295;42.658;23.374;2023-04-04T04:57:21;93175.50;;;14.24;57.38
27958;BME280;15295;42.658;23.374;2023-04-04T04:59:47;93178.63;;;14.35;57.81
27958;BME280;15295;42.658;23.374;2023-04-04T05:02:13;93179.66;;;14.37;57.88
27958;BME280;15295;42.658;23.374;2023-04-04T05:04:38;93182.56;;;14.34;57.92
27958;BME280;15295;42.658;23.374;2023-04-04T05:07:05;93182.41;;;14.37;57.75
27958;BME280;15295;42.658;23.374;2023-04-04T05:09:32;93186.84;;;14.44;57.55
27958;BME280;15295;42.658;23.374;2023-04-04T05:11:59;93180.78;;;14.49;57.52
27958;BME280;15295;42.658;23.374;2023-04-04T05:14:24;93196.97;;;14.56;57.40
27958;BME280;15295;42.658;23.374;2023-04-04T05:16:52;93210.56;;;14.59;57.34
27958;BME280;15295;42.658;23.374;2023-04-04T05:19:17;93195.72;;;14.48;57.00
27958;BME280;15295;42.658;23.374;2023-04-04T05:21:42;93202.75;;;14.49;57.16
27958;BME280;15295;42.658;23.374;2023-04-04T05:24:08;93202.00;;;14.48;57.03
27958;BME280;15295;42.658;23.374;2023-04-04T05:26:42;93206.56;;;14.42;57.37
27958;BME280;15295;42.658;23.374;2023-04-04T05:29:08;93202.91;;;14.45;57.28
27958;BME280;15295;42.658;23.374;2023-04-04T05:31:33;93212.38;;;14.44;57.37
27958;BME280;15295;42.658;23.374;2023-04-04T05:33:58;93208.41;;;14.45;57.12
27958;BME280;15295;42.658;23.374;2023-04-04T05:36:45;93219.88;;;14.53;57.15
27958;BME280;15295;42.658;23.374;2023-04-04T05:39:10;93215.00;;;14.57;57.38
27958;BME280;15295;42.658;23.374;2023-04-04T05:41:36;93211.66;;;14.62;57.73
27958;BME280;15295;42.658;23.374;2023-04-04T05:44:07;93213.78;;;14.67;57.83
27958;BME280;15295;42.658;23.374;2023-04-04T05:46:40;93214.84;;;14.69;57.54
27958;BME280;15295;42.658;23.374;2023-04-04T05:49:05;93215.00;;;14.66;57.46
27958;BME280;15295;42.658;23.374;2023-04-04T05:51:31;93218.84;;;14.68;57.81
27958;BME280;15295;42.658;23.374;2023-04-04T05:53:56;93207.97;;;14.65;58.02
27958;BME280;15295;42.658;23.374;2023-04-04T05:56:24;93216.84;;;14.78;58.08
27958;BME280;15295;42.658;23.374;2023-04-04T05:58:49;93219.31;;;14.85;57.86
27958;BME280;15295;42.658;23.374;2023-04-04T06:01:15;93216.56;;;14.85;57.80
27958;BME280;15295;42.658;23.374;2023-04-04T06:03:41;93223.00;;;14.91;57.33
27958;BME280;15295;42.658;23.374;2023-04-04T06:06:07;93215.50;;;14.92;57.54
27958;BME280;15295;42.658;23.374;2023-04-04T06:08:32;93231.53;;;14.93;56.92
27958;BME280;15295;42.658;23.374;2023-04-04T06:10:58;93224.97;;;14.91;56.89
27958;BME280;15295;42.658;23.374;2023-04-04T06:13:23;93229.25;;;14.92;57.06
27958;BME280;15295;42.658;23.374;2023-04-04T06:15:49;93226.66;;;14.97;57.20
27958;BME280;15295;42.658;23.374;2023-04-04T06:18:21;93238.13;;;15.05;57.08
27958;BME280;15295;42.658;23.374;2023-04-04T06:20:46;93230.34;;;15.03;56.84
27958;BME280;15295;42.658;23.374;2023-04-04T06:23:12;93230.34;;;15.12;57.08
27958;BME280;15295;42.658;23.374;2023-04-04T06:25:37;93229.13;;;15.13;56.66
27958;BME280;15295;42.658;23.374;2023-04-04T06:28:03;93235.22;;;15.17;56.67
27958;BME280;15295;42.658;23.374;2023-04-04T06:30:29;93237.97;;;15.08;56.81
27958;BME280;15295;42.658;23.374;2023-04-04T06:32:55;93232.34;;;15.12;56.93
27958;BME280;15295;42.658;23.374;2023-04-04T06:35:23;93244.41;;;15.23;56.68
27958;BME280;15295;42.658;23.374;2023-04-04T06:37:56;93247.47;;;15.25;56.93
27958;BME280;15295;42.658;23.374;2023-04-04T06:40:21;93255.41;;;15.23;56.43
27958;BME280;15295;42.658;23.374;2023-04-04T06:42:48;93264.75;;;15.26;56.58
27958;BME280;15295;42.658;23.374;2023-04-04T06:45:19;93268.88;;;15.30;56.55
27958;BME280;15295;42.658;23.374;2023-04-04T06:47:44;93266.13;;;15.30;56.09
27958;BME280;15295;42.658;23.374;2023-04-04T06:50:11;93273.47;;;15.24;56.15
27958;BME280;15295;42.658;23.374;2023-04-04T06:52:36;93271.28;;;14.92;53.63
27958;BME280;15295;42.658;23.374;2023-04-04T07:31:14;93375.31;;;11.09;52.55
27958;BME280;15295;42.658;23.374;2023-04-04T07:33:41;93344.25;;;10.70;52.88
27958;BME280;15295;42.658;23.374;2023-04-04T07:46:21;93340.44;;;10.52;53.20
27958;BME280;15295;42.658;23.374;2023-04-04T07:48:46;93403.88;;;10.75;53.04
27958;BME280;15295;42.658;23.374;2023-04-04T07:51:12;93393.06;;;10.52;52.93
27958;BME280;15295;42.658;23.374;2023-04-04T07:53:38;93397.16;;;10.44;53.19
27958;BME280;15295;42.658;23.374;2023-04-04T07:56:03;93397.00;;;10.51;53.21
27958;BME280;15295;42.658;23.374;2023-04-04T07:58:50;93379.97;;;10.28;53.28
27958;BME280;15295;42.658;23.374;2023-04-04T08:19:50;93416.63;;;10.11;54.08
27958;BME280;15295;42.658;23.374;2023-04-04T08:22:20;93437.97;;;10.16;54.17
27958;BME280;15295;42.658;23.374;2023-04-04T08:25:08;93425.66;;;9.88;53.71
27958;BME280;15295;42.658;23.374;2023-04-04T08:30:10;93469.22;;;9.91;53.43
27958;BME280;15295;42.658;23.374;2023-04-04T08:32:36;93473.13;;;9.90;53.08
27958;BME280;15295;42.658;23.374;2023-04-04T08:35:03;93471.66;;;9.86;53.27
27958;BME280;15295;42.658;23.374;2023-04-04T08:37:29;93465.84;;;9.84;53.44
27958;BME280;15295;42.658;23.374;2023-04-04T08:39:55;93462.28;;;9.87;53.57
27958;BME280;15295;42.658;23.374;2023-04-04T08:42:24;93464.69;;;9.85;53.50
27958;BME280;15295;42.658;23.374;2023-04-04T08:44:53;93447.50;;;9.65;52.98
27958;BME280;15295;42.658;23.374;2023-04-04T08:47:23;93458.41;;;9.65;53.11
27958;BME280;15295;42.658;23.374;2023-04-04T08:49:52;93464.84;;;9.55;53.23
27958;BME280;15295;42.658;23.374;2023-04-04T08:52:21;93458.75;;;9.47;52.96
27958;BME280;15295;42.658;23.374;2023-04-04T08:54:53;93477.53;;;9.42;53.21
27958;BME280;15295;42.658;23.374;2023-04-04T08:57:19;93448.03;;;9.13;53.85
27958;BME280;15295;42.658;23.374;2023-04-04T08:59:47;93472.34;;;9.27;53.84
27958;BME280;15295;42.658;23.374;2023-04-04T09:02:28;93485.84;;;9.34;54.19
27958;BME280;15295;42.658;23.374;2023-04-04T09:05:01;93495.09;;;9.41;54.67
27958;BME280;15295;42.658;23.374;2023-04-04T09:07:28;93492.03;;;9.39;54.07
27958;BME280;15295;42.658;23.374;2023-04-04T09:10:02;93478.25;;;9.22;54.06
27958;BME280;15295;42.658;23.374;2023-04-04T09:12:35;93503.50;;;9.26;54.54
27958;BME280;15295;42.658;23.374;2023-04-04T09:15:08;93503.09;;;9.28;54.26
27958;BME280;15295;42.658;23.374;2023-04-04T09:17:40;93473.81;;;9.09;54.69
27958;BME280;15295;42.658;23.374;2023-04-04T09:20:40;93511.50;;;9.37;54.86
27958;BME280;15295;42.658;23.374;2023-04-04T09:23:12;93466.81;;;9.08;54.54
27958;BME280;15295;42.658;23.374;2023-04-04T09:25:52;93514.53;;;9.43;55.08
27958;BME280;15295;42.658;23.374;2023-04-04T09:28:19;93506.66;;;9.48;55.33
27958;BME280;15295;42.658;23.374;2023-04-04T09:30:47;93486.63;;;9.35;55.32
27958;BME280;15295;42.658;23.374;2023-04-04T09:33:14;93506.19;;;9.53;55.29
27958;BME280;15295;42.658;23.374;2023-04-04T09:35:48;93478.66;;;9.44;54.41
27958;BME280;15295;42.658;23.374;2023-04-04T09:38:16;93502.56;;;9.60;54.20
27958;BME280;15295;42.658;23.374;2023-04-04T09:40:43;93515.84;;;9.58;54.22
27958;BME280;15295;42.658;23.374;2023-04-04T09:43:11;93498.88;;;9.47;53.77
27958;BME280;15295;42.658;23.374;2023-04-04T09:45:43;93506.47;;;9.59;53.24
27958;BME280;15295;42.658;23.374;2023-04-04T09:48:09;93508.38;;;9.62;52.97
27958;BME280;15295;42.658;23.374;2023-04-04T09:50:49;93510.59;;;9.67;53.44
27958;BME280;15295;42.658;23.374;2023-04-04T09:53:18;93503.97;;;9.68;53.42
27958;BME280;15295;42.658;23.374;2023-04-04T09:55:53;93501.00;;;9.59;53.24
27958;BME280;15295;42.658;23.374;2023-04-04T09:58:26;93501.72;;;9.63;53.29
27958;BME280;15295;42.658;23.374;2023-04-04T10:01:11;93516.00;;;9.70;52.51
27958;BME280;15295;42.658;23.374;2023-04-04T10:03:37;93524.84;;;9.55;52.27
27958;BME280;15295;42.658;23.374;2023-04-04T10:06:25;93534.63;;;9.52;52.04
27958;BME280;15295;42.658;23.374;2023-04-04T10:09:02;93533.81;;;9.55;52.58
27958;BME280;15295;42.658;23.374;2023-04-04T10:15:35;93534.81;;;9.42;52.94
27958;BME280;15295;42.658;23.374;2023-04-04T10:18:11;93540.25;;;9.42;53.08
27958;BME280;15295;42.658;23.374;2023-04-04T10:21:00;93523.91;;;9.42;53.20
27958;BME280;15295;42.658;23.374;2023-04-04T10:23:26;93545.19;;;9.50;52.99
27958;BME280;15295;42.658;23.374;2023-04-04T10:26:04;93520.22;;;9.28;53.10
27958;BME280;15295;42.658;23.374;2023-04-04T10:31:15;93547.09;;;9.53;52.63
27958;BME280;15295;42.658;23.374;2023-04-04T10:36:27;93534.69;;;9.49;51.86
27958;BME280;15295;42.658;23.374;2023-04-04T10:39:00;93560.91;;;9.66;51.39
27958;BME280;15295;42.658;23.374;2023-04-04T10:41:31;93537.50;;;9.45;51.84
27958;BME280;15295;42.658;23.374;2023-04-04T10:44:00;93564.88;;;9.61;52.10
27958;BME280;15295;42.658;23.374;2023-04-04T10:46:33;93561.34;;;9.61;52.20
27958;BME280;15295;42.658;23.374;2023-04-04T10:48:59;93568.31;;;9.65;52.43
27958;BME280;15295;42.658;23.374;2023-04-04T10:51:29;93544.41;;;9.50;51.99
27958;BME280;15295;42.658;23.374;2023-04-04T10:53:56;93560.47;;;9.44;51.64
27958;BME280;15295;42.658;23.374;2023-04-04T10:56:22;93561.06;;;9.55;51.56
27958;BME280;15295;42.658;23.374;2023-04-04T10:58:48;93568.72;;;9.64;52.20
27958;BME280;15295;42.658;23.374;2023-04-04T11:01:14;93573.75;;;9.65;51.48
27958;BME280;15295;42.658;23.374;2023-04-04T11:04:14;93575.25;;;9.70;51.42
27958;BME280;15295;42.658;23.374;2023-04-04T11:07:09;93588.28;;;9.59;51.07
27958;BME280;15295;42.658;23.374;2023-04-04T11:09:49;93572.28;;;9.61;51.28
27958;BME280;15295;42.658;23.374;2023-04-04T11:12:40;93586.03;;;9.54;51.32
27958;BME280;15295;42.658;23.374;2023-04-04T11:15:08;93586.97;;;9.44;51.36
27958;BME280;15295;42.658;23.374;2023-04-04T11:17:55;93595.13;;;9.44;51.14
27958;BME280;15295;42.658;23.374;2023-04-04T11:20:34;93555.47;;;9.16;50.97
27958;BME280;15295;42.658;23.374;2023-04-04T11:25:31;93595.47;;;9.49;51.34
27958;BME280;15295;42.658;23.374;2023-04-04T11:27:57;93600.84;;;9.53;51.68
27958;BME280;15295;42.658;23.374;2023-04-04T11:30:24;93603.47;;;9.60;52.26
27958;BME280;15295;42.658;23.374;2023-04-04T11:32:58;93580.69;;;9.47;51.56
27958;BME280;15295;42.658;23.374;2023-04-04T11:35:37;93559.94;;;9.29;50.94
27958;BME280;15295;42.658;23.374;2023-04-04T11:38:12;93617.50;;;9.58;51.25
27958;BME280;15295;42.658;23.374;2023-04-04T11:40:39;93610.59;;;9.54;51.21
27958;BME280;15295;42.658;23.374;2023-04-04T11:43:12;93592.72;;;9.49;51.42
27958;BME280;15295;42.658;23.374;2023-04-04T11:45:48;93615.66;;;9.52;52.08
27958;BME280;15295;42.658;23.374;2023-04-04T11:48:16;93609.03;;;9.53;51.94
27958;BME280;15295;42.658;23.374;2023-04-04T11:50:46;93609.81;;;9.53;52.42
27958;BME280;15295;42.658;23.374;2023-04-04T11:53:14;93601.31;;;9.48;52.49
27958;BME280;15295;42.658;23.374;2023-04-04T11:55:46;93614.78;;;9.58;52.71
27958;BME280;15295;42.658;23.374;2023-04-04T11:58:23;93604.28;;;9.57;52.66
27958;BME280;15295;42.658;23.374;2023-04-04T12:00:50;93592.31;;;9.51;52.12
27958;BME280;15295;42.658;23.374;2023-04-04T12:03:16;93600.06;;;9.52;52.35
27958;BME280;15295;42.658;23.374;2023-04-04T12:05:43;93603.94;;;9.55;52.27
27958;BME280;15295;42.658;23.374;2023-04-04T12:08:12;93598.06;;;9.56;52.61
27958;BME280;15295;42.658;23.374;2023-04-04T12:10:39;93588.97;;;9.40;52.24
27958;BME280;15295;42.658;23.374;2023-04-04T12:13:06;93597.34;;;9.52;52.20
27958;BME280;15295;42.658;23.374;2023-04-04T12:23:51;93630.19;;;9.45;52.19
27958;BME280;15295;42.658;23.374;2023-04-04T12:55:10;93558.03;;;8.43;53.41
27958;BME280;15295;42.658;23.374;2023-04-04T12:57:59;93600.78;;;8.76;53.16
27958;BME280;15295;42.658;23.374;2023-04-04T17:17:24;93909.41;;;6.44;53.31
27958;BME280;15295;42.658;23.374;2023-04-04T17:19:51;93915.63;;;6.37;53.32
27958;BME280;15295;42.658;23.374;2023-04-04T17:22:16;93902.41;;;6.36;53.44
27958;BME280;15295;42.658;23.374;2023-04-04T17:24:42;93898.94;;;6.32;53.58
27958;BME280;15295;42.658;23.374;2023-04-04T17:27:08;93869.47;;;6.12;53.59
27958;BME280;15295;42.658;23.374;2023-04-04T17:29:35;93910.19;;;6.34;53.84
27958;BME280;15295;42.658;23.374;2023-04-04T17:32:25;93934.19;;;6.35;54.04
27958;BME280;15295;42.658;23.374;2023-04-04T17:34:56;93938.09;;;6.34;53.89
27958;BME280;15295;42.658;23.374;2023-04-04T17:39:48;93893.84;;;5.98;54.01
27958;BME280;15295;42.658;23.374;2023-04-04T17:57:49;93894.50;;;5.67;55.04
27958;BME280;15295;42.658;23.374;2023-04-04T18:00:34;93896.00;;;5.54;54.84
27958;BME280;15295;42.658;23.374;2023-04-04T18:03:26;93979.84;;;5.98;55.07
27958;BME280;15295;42.658;23.374;2023-04-04T18:06:05;93907.59;;;5.44;55.55
27958;BME280;15295;42.658;23.374;2023-04-04T18:08:55;93964.22;;;5.70;55.23
27958;BME280;15295;42.658;23.374;2023-04-04T18:11:34;93956.06;;;5.60;55.95
27958;BME280;15295;42.658;23.374;2023-04-04T18:14:04;93987.09;;;5.80;55.90
27958;BME280;15295;42.658;23.374;2023-04-04T18:16:36;93992.22;;;5.88;55.94
27958;BME280;15295;42.658;23.374;2023-04-04T18:19:08;93987.16;;;5.87;55.94
27958;BME280;15295;42.658;23.374;2023-04-04T18:21:48;93978.56;;;5.78;55.99
27958;BME280;15295;42.658;23.374;2023-04-04T18:24:25;93978.16;;;5.69;55.70
27958;BME280;15295;42.658;23.374;2023-04-04T18:26:59;93990.19;;;5.78;55.45
27958;BME280;15295;42.658;23.374;2023-04-04T18:29:49;93996.84;;;5.84;55.25
27958;BME280;15295;42.658;23.374;2023-04-04T18:32:24;93994.09;;;5.81;55.09
27958;BME280;15295;42.658;23.374;2023-04-04T18:34:52;94001.91;;;5.89;55.31
27958;BME280;15295;42.658;23.374;2023-04-04T18:37:19;93983.25;;;5.77;54.77
27958;BME280;15295;42.658;23.374;2023-04-04T18:39:44;93999.91;;;5.83;54.88
27958;BME280;15295;42.658;23.374;2023-04-04T18:42:22;94015.50;;;5.96;54.79
27958;BME280;15295;42.658;23.374;2023-04-04T18:44:51;93969.25;;;5.75;54.76
27958;BME280;15295;42.658;23.374;2023-04-04T18:47:17;93999.56;;;5.84;54.95
27958;BME280;15295;42.658;23.374;2023-04-04T18:49:43;94008.13;;;5.90;54.44
27958;BME280;15295;42.658;23.374;2023-04-04T18:52:15;94003.00;;;5.81;54.23
27958;BME280;15295;42.658;23.374;2023-04-04T18:54:40;94016.25;;;5.90;54.12
27958;BME280;15295;42.658;23.374;2023-04-04T18:57:08;93995.22;;;5.73;54.02
27958;BME280;15295;42.658;23.374;2023-04-04T18:59:41;93966.09;;;5.59;54.24
27958;BME280;15295;42.658;23.374;2023-04-04T19:02:19;94007.25;;;5.82;54.40
27958;BME280;15295;42.658;23.374;2023-04-04T19:05:06;94037.59;;;6.02;53.93
27958;BME280;15295;42.658;23.374;2023-04-04T19:07:43;93989.03;;;5.72;53.89
27958;BME280;15295;42.658;23.374;2023-04-04T19:10:11;94042.22;;;5.94;53.75
27958;BME280;15295;42.658;23.374;2023-04-04T19:13:00;94048.03;;;5.96;53.89
27958;BME280;15295;42.658;23.374;2023-04-04T19:15:47;94038.34;;;5.95;53.75
27958;BME280;15295;42.658;23.374;2023-04-04T19:18:14;94004.50;;;5.68;53.66
27958;BME280;15295;42.658;23.374;2023-04-04T19:20:52;94003.25;;;5.52;53.96
27958;BME280;15295;42.658;23.374;2023-04-04T19:23:40;94045.28;;;5.89;53.56
27958;BME280;15295;42.658;23.374;2023-04-04T19:26:05;94041.78;;;5.89;53.79
27958;BME280;15295;42.658;23.374;2023-04-04T19:28:43;94038.69;;;5.87;54.23
27958;BME280;15295;42.658;23.374;2023-04-04T19:33:40;94021.56;;;5.76;54.42
27958;BME280;15295;42.658;23.374;2023-04-04T19:36:09;94048.78;;;5.90;54.11
27958;BME280;15295;42.658;23.374;2023-04-04T19:38:38;94019.97;;;5.64;54.24
27958;BME280;15295;42.658;23.374;2023-04-04T19:43:52;94064.97;;;5.79;54.44
27958;BME280;15295;42.658;23.374;2023-04-04T19:46:27;94032.28;;;5.58;54.53
27958;BME280;15295;42.658;23.374;2023-04-04T19:49:00;94027.69;;;5.62;54.31
27958;BME280;15295;42.658;23.374;2023-04-04T19:51:39;94057.97;;;5.78;54.65